sensor_id;sensor_type;location;lat;lon;timestamp;pressure;altitude;pressure_sealevel;temperature;humidity
8069;BME280;4077;43.702;24.896;2023-01-28T00:00:55;99111.72;;;1.91;100.00
8069;BME280;4077;43.702;24.896;2023-01-28T00:03:20;99103.69;;;1.80;100.00
8069;BME280;4077;43.702;24.896;2023-01-28T00:05:46;99112.53;;;1.90;100.00
8069;BME280;4077;43.702;24.896;2023-01-28T00:08:11;99120.06;;;1.87;100.00
8069;BME280;4077;43.702;24.896;2023-01-28T00:10:37;99120.41;;;1.96;100.00
8069;BME280;4077;43.702;24.896;2023-01-28T00:13:07;99121.16;;;1.94;100.00
8069;BME280;4077;43.702;24.896;2023-01-28T00:15:35;99113.34;;;1.89;100.00
8069;BME280;4077;43.702;24.896;2023-01-28T00:18:02;99126.25;;;1.94;100.00
8069;BME280;4077;43.702;24.896;2023-01-28T00:20:27;99110.69;;;1.86;100.00
8069;BME280;4077;43.702;24.896;2023-01-28T00:22:53;99120.41;;;1.96;100.00
8069;BME280;4077;43.702;24.896;2023-01-28T00:25:18;99127.13;;;1.94;100.00
8069;BME280;4077;43.702;24.896;2023-01-28T00:27:43;99125.41;;;1.93;100.00
8069;BME280;4077;43.702;24.896;2023-01-28T00:30:09;99124.53;;;1.92;100.00
8069;BME280;4077;43.702;24.896;2023-01-28T00:32:35;99137.06;;;1.88;100.00
8069;BME280;4077;43.702;24.896;2023-01-28T00:35:00;99140.66;;;1.93;100.00
8069;BME280;4077;43.702;24.896;2023-01-28T00:37:26;99131.41;;;1.95;100.00
8069;BME280;4077;43.702;24.896;2023-01-28T00:39:51;99147.34;;;1.91;100.00
8069;BME280;4077;43.702;24.896;2023-01-28T00:42:17;99134.47;;;1.86;100.00
8069;BME280;4077;43.702;24.896;2023-01-28T00:44:42;99142.41;;;1.94;100.00
8069;BME280;4077;43.702;24.896;2023-01-28T00:47:08;99123.28;;;1.83;100.00
8069;BME280;4077;43.702;24.896;2023-01-28T00:49:33;99151.75;;;1.95;100.00
8069;BME280;4077;43.702;24.896;2023-01-28T00:51:59;99148.59;;;2.01;100.00
8069;BME280;4077;43.702;24.896;2023-01-28T00:54:24;99117.50;;;1.87;100.00
8069;BME280;4077;43.702;24.896;2023-01-28T00:56:50;99152.06;;;2.03;100.00
8069;BME280;4077;43.702;24.896;2023-01-28T00:59:17;99156.28;;;2.02;100.00
8069;BME280;4077;43.702;24.896;2023-01-28T01:01:43;99129.47;;;1.89;100.00
8069;BME280;4077;43.702;24.896;2023-01-28T01:04:08;99130.59;;;1.96;100.00
8069;BME280;4077;43.702;24.896;2023-01-28T01:06:36;99155.91;;;2.14;100.00
8069;BME280;4077;43.702;24.896;2023-01-28T01:09:05;99149.72;;;2.07;100.00
8069;BME280;4077;43.702;24.896;2023-01-28T01:11:31;99163.91;;;2.02;100.00
8069;BME280;4077;43.702;24.896;2023-01-28T01:13:58;99162.31;;;2.04;100.00
8069;BME280;4077;43.702;24.896;2023-01-28T01:16:29;99146.91;;;2.01;100.00
8069;BME280;4077;43.702;24.896;2023-01-28T01:18:56;99163.34;;;2.09;100.00
8069;BME280;4077;43.702;24.896;2023-01-28T01:21:25;99160.25;;;2.16;100.00
8069;BME280;4077;43.702;24.896;2023-01-28T01:23:52;99163.59;;;2.15;100.00
8069;BME280;4077;43.702;24.896;2023-01-28T01:26:18;99156.88;;;2.17;100.00
8069;BME280;4077;43.702;24.896;2023-01-28T01:28:44;99135.81;;;1.99;100.00
8069;BME280;4077;43.702;24.896;2023-01-28T01:31:15;99158.84;;;2.25;100.00
8069;BME280;4077;43.702;24.896;2023-01-28T01:33:42;99131.03;;;2.07;100.00
8069;BME280;4077;43.702;24.896;2023-01-28T01:36:09;99163.03;;;2.23;100.00
8069;BME280;4077;43.702;24.896;2023-01-28T01:38:35;99161.00;;;2.14;100.00
8069;BME280;4077;43.702;24.896;2023-01-28T01:41:02;99149.56;;;2.04;100.00
8069;BME280;4077;43.702;24.896;2023-01-28T01:46:18;99175.53;;;2.16;100.00
8069;BME280;4077;43.702;24.896;2023-01-28T01:48:45;99184.63;;;2.11;100.00
8069;BME280;4077;43.702;24.896;2023-01-28T01:51:18;99180.25;;;2.07;100.00
8069;BME280;4077;43.702;24.896;2023-01-28T01:53:47;99177.41;;;2.00;100.00
8069;BME280;4077;43.702;24.896;2023-01-28T01:56:20;99190.28;;;2.04;100.00
8069;BME280;4077;43.702;24.896;2023-01-28T01:58:49;99169.06;;;1.83;100.00
8069;BME280;4077;43.702;24.896;2023-01-28T02:01:24;99174.38;;;1.87;100.00
8069;BME280;4077;43.702;24.896;2023-01-28T02:06:23;99162.16;;;1.79;100.00
8069;BME280;4077;43.702;24.896;2023-01-28T02:08:53;99194.16;;;1.95;100.00
8069;BME280;4077;43.702;24.896;2023-01-28T02:11:19;99183.63;;;1.85;100.00
8069;BME280;4077;43.702;24.896;2023-01-28T02:13:48;99171.06;;;1.90;100.00
8069;BME280;4077;43.702;24.896;2023-01-28T02:16:15;99176.03;;;1.87;100.00
8069;BME280;4077;43.702;24.896;2023-01-28T02:18:41;99169.06;;;1.83;100.00
8069;BME280;4077;43.702;24.896;2023-01-28T02:21:30;99190.44;;;2.07;100.00
8069;BME280;4077;43.702;24.896;2023-01-28T02:27:36;99206.19;;;2.40;100.00
8069;BME280;4077;43.702;24.896;2023-01-28T02:32:41;99202.88;;;2.43;100.00
8069;BME280;4077;43.702;24.896;2023-01-28T02:35:27;99201.56;;;2.32;100.00
8069;BME280;4077;43.702;24.896;2023-01-28T02:38:04;99198.22;;;2.33;100.00
8069;BME280;4077;43.702;24.896;2023-01-28T02:40:35;99173.53;;;2.09;100.00
8069;BME280;4077;43.702;24.896;2023-01-28T02:45:58;99212.19;;;1.99;100.00
8069;BME280;4077;43.702;24.896;2023-01-28T02:48:42;99211.06;;;1.92;100.00
8069;BME280;4077;43.702;24.896;2023-01-28T02:51:31;99205.06;;;1.92;100.00
8069;BME280;4077;43.702;24.896;2023-01-28T02:54:28;99208.56;;;1.94;100.00
8069;BME280;4077;43.702;24.896;2023-01-28T02:59:52;99197.53;;;1.94;100.00
8069;BME280;4077;43.702;24.896;2023-01-28T03:02:33;99219.81;;;1.99;100.00
8069;BME280;4077;43.702;24.896;2023-01-28T03:07:38;99213.25;;;1.85;100.00
8069;BME280;4077;43.702;24.896;2023-01-28T03:10:06;99212.69;;;1.92;100.00
8069;BME280;4077;43.702;24.896;2023-01-28T03:12:34;99211.66;;;1.87;100.00
8069;BME280;4077;43.702;24.896;2023-01-28T03:15:31;99229.75;;;1.93;100.00
8069;BME280;4077;43.702;24.896;2023-01-28T03:18:46;99229.91;;;1.98;100.00
8069;BME280;4077;43.702;24.896;2023-01-28T03:21:37;99228.78;;;1.91;100.00
8069;BME280;4077;43.702;24.896;2023-01-28T03:24:31;99233.75;;;1.88;100.00
8069;BME280;4077;43.702;24.896;2023-01-28T03:27:32;99229.47;;;1.87;100.00
8069;BME280;4077;43.702;24.896;2023-01-28T03:30:24;99238.03;;;1.89;100.00
8069;BME280;4077;43.702;24.896;2023-01-28T03:33:10;99250.38;;;1.80;100.00
8069;BME280;4077;43.702;24.896;2023-01-28T03:35:54;99244.09;;;1.72;100.00
8069;BME280;4077;43.702;24.896;2023-01-28T03:38:40;99222.44;;;1.60;100.00
8069;BME280;4077;43.702;24.896;2023-01-28T03:41:18;99222.50;;;1.43;100.00
8069;BME280;4077;43.702;24.896;2023-01-28T03:43:44;99240.63;;;1.50;100.00
8069;BME280;4077;43.702;24.896;2023-01-28T03:46:09;99215.81;;;1.25;100.00
8069;BME280;4077;43.702;24.896;2023-01-28T03:48:35;99240.13;;;1.38;100.00
8069;BME280;4077;43.702;24.896;2023-01-28T03:51:00;99237.63;;;1.40;100.00
8069;BME280;4077;43.702;24.896;2023-01-28T03:53:27;99238.63;;;1.43;100.00
8069;BME280;4077;43.702;24.896;2023-01-28T03:55:53;99238.22;;;1.53;100.00
8069;BME280;4077;43.702;24.896;2023-01-28T03:58:19;99249.22;;;1.52;100.00
8069;BME280;4077;43.702;24.896;2023-01-28T04:00:46;99251.06;;;1.56;100.00
8069;BME280;4077;43.702;24.896;2023-01-28T04:03:13;99253.75;;;1.59;100.00
8069;BME280;4077;43.702;24.896;2023-01-28T04:05:57;99253.50;;;1.53;100.00
8069;BME280;4077;43.702;24.896;2023-01-28T04:08:23;99255.75;;;1.47;100.00
8069;BME280;4077;43.702;24.896;2023-01-28T04:10:49;99256.69;;;1.49;100.00
8069;BME280;4077;43.702;24.896;2023-01-28T04:13:15;99259.22;;;1.49;100.00
8069;BME280;4077;43.702;24.896;2023-01-28T04:15:41;99261.94;;;1.52;100.00
8069;BME280;4077;43.702;24.896;2023-01-28T04:18:08;99252.69;;;1.54;100.00
8069;BME280;4077;43.702;24.896;2023-01-28T04:20:33;99264.84;;;1.61;100.00
8069;BME280;4077;43.702;24.896;2023-01-28T04:22:59;99262.84;;;1.54;100.00
8069;BME280;4077;43.702;24.896;2023-01-28T04:25:25;99264.47;;;1.52;100.00
8069;BME280;4077;43.702;24.896;2023-01-28T04:27:50;99263.59;;;1.52;100.00
8069;BME280;4077;43.702;24.896;2023-01-28T04:30:16;99258.19;;;1.44;100.00
8069;BME280;4077;43.702;24.896;2023-01-28T04:32:42;99258.97;;;1.43;100.00
8069;BME280;4077;43.702;24.896;2023-01-28T04:35:08;99267.94;;;1.54;100.00
8069;BME280;4077;43.702;24.896;2023-01-28T04:37:33;99269.06;;;1.61;100.00
8069;BME280;4077;43.702;24.896;2023-01-28T04:39:59;99264.06;;;1.62;100.00
8069;BME280;4077;43.702;24.896;2023-01-28T04:42:24;99271.84;;;1.66;100.00
8069;BME280;4077;43.702;24.896;2023-01-28T04:44:49;99245.53;;;1.46;100.00
8069;BME280;4077;43.702;24.896;2023-01-28T04:47:15;99266.22;;;1.53;100.00
8069;BME280;4077;43.702;24.896;2023-01-28T04:49:40;99272.81;;;1.50;100.00
8069;BME280;4077;43.702;24.896;2023-01-28T04:52:06;99254.34;;;1.34;100.00
8069;BME280;4077;43.702;24.896;2023-01-28T04:54:31;99279.19;;;1.40;100.00
8069;BME280;4077;43.702;24.896;2023-01-28T04:56:57;99271.06;;;1.29;100.00
8069;BME280;4077;43.702;24.896;2023-01-28T04:59:22;99279.50;;;1.28;100.00
8069;BME280;4077;43.702;24.896;2023-01-28T05:01:48;99285.59;;;1.32;100.00
8069;BME280;4077;43.702;24.896;2023-01-28T05:04:14;99283.59;;;1.25;100.00
8069;BME280;4077;43.702;24.896;2023-01-28T05:06:41;99284.59;;;1.28;100.00
8069;BME280;4077;43.702;24.896;2023-01-28T05:09:07;99295.91;;;1.35;100.00
8069;BME280;4077;43.702;24.896;2023-01-28T05:11:32;99256.75;;;1.12;100.00
8069;BME280;4077;43.702;24.896;2023-01-28T05:13:57;99292.44;;;1.33;100.00
8069;BME280;4077;43.702;24.896;2023-01-28T05:16:23;99288.59;;;1.23;100.00
8069;BME280;4077;43.702;24.896;2023-01-28T05:18:48;99304.94;;;1.28;100.00
8069;BME280;4077;43.702;24.896;2023-01-28T05:21:16;99296.03;;;1.19;100.00
8069;BME280;4077;43.702;24.896;2023-01-28T05:23:42;99304.38;;;1.16;100.00
8069;BME280;4077;43.702;24.896;2023-01-28T05:26:08;99301.47;;;1.08;100.00
8069;BME280;4077;43.702;24.896;2023-01-28T05:28:34;99284.88;;;0.97;100.00
8069;BME280;4077;43.702;24.896;2023-01-28T05:31:03;99296.00;;;0.99;100.00
8069;BME280;4077;43.702;24.896;2023-01-28T05:33:29;99291.19;;;0.88;100.00
8069;BME280;4077;43.702;24.896;2023-01-28T05:35:55;99294.84;;;0.93;100.00
8069;BME280;4077;43.702;24.896;2023-01-28T05:38:20;99293.44;;;0.81;100.00
8069;BME280;4077;43.702;24.896;2023-01-28T05:40:46;99298.59;;;1.01;100.00
8069;BME280;4077;43.702;24.896;2023-01-28T05:43:12;99303.31;;;1.11;100.00
8069;BME280;4077;43.702;24.896;2023-01-28T05:45:37;99308.88;;;1.22;100.00
8069;BME280;4077;43.702;24.896;2023-01-28T05:48:03;99309.59;;;1.19;100.00
8069;BME280;4077;43.702;24.896;2023-01-28T05:50:28;99315.69;;;1.23;100.00
8069;BME280;4077;43.702;24.896;2023-01-28T05:52:54;99310.94;;;1.11;100.00
8069;BME280;4077;43.702;24.896;2023-01-28T05:55:19;99316.38;;;1.19;100.00
8069;BME280;4077;43.702;24.896;2023-01-28T05:57:45;99325.72;;;1.20;100.00
8069;BME280;4077;43.702;24.896;2023-01-28T06:00:11;99313.09;;;1.21;100.00
8069;BME280;4077;43.702;24.896;2023-01-28T06:02:36;99324.56;;;1.31;100.00
8069;BME280;4077;43.702;24.896;2023-01-28T06:05:02;99310.88;;;1.29;100.00
8069;BME280;4077;43.702;24.896;2023-01-28T06:07:27;99333.47;;;1.41;100.00
8069;BME280;4077;43.702;24.896;2023-01-28T06:09:53;99340.50;;;1.46;100.00
8069;BME280;4077;43.702;24.896;2023-01-28T06:12:18;99340.63;;;1.49;100.00
8069;BME280;4077;43.702;24.896;2023-01-28T06:14:44;99335.13;;;1.40;100.00
8069;BME280;4077;43.702;24.896;2023-01-28T06:17:10;99347.31;;;1.47;100.00
8069;BME280;4077;43.702;24.896;2023-01-28T06:19:35;99300.84;;;1.13;100.00
8069;BME280;4077;43.702;24.896;2023-01-28T06:22:01;99353.72;;;1.39;100.00
8069;BME280;4077;43.702;24.896;2023-01-28T06:24:26;99337.59;;;1.39;100.00
8069;BME280;4077;43.702;24.896;2023-01-28T06:26:52;99348.22;;;1.30;100.00
8069;BME280;4077;43.702;24.896;2023-01-28T06:29:17;99357.66;;;1.32;100.00
8069;BME280;4077;43.702;24.896;2023-01-28T06:31:42;99351.84;;;1.35;100.00
8069;BME280;4077;43.702;24.896;2023-01-28T06:34:09;99361.44;;;1.41;100.00
8069;BME280;4077;43.702;24.896;2023-01-28T06:36:35;99357.09;;;1.38;100.00
8069;BME280;4077;43.702;24.896;2023-01-28T06:39:02;99355.25;;;1.35;100.00
8069;BME280;4077;43.702;24.896;2023-01-28T06:41:28;99360.69;;;1.43;100.00
8069;BME280;4077;43.702;24.896;2023-01-28T06:43:53;99365.66;;;1.40;100.00
8069;BME280;4077;43.702;24.896;2023-01-28T06:46:19;99345.16;;;1.37;100.00
8069;BME280;4077;43.702;24.896;2023-01-28T06:48:44;99370.75;;;1.59;100.00
8069;BME280;4077;43.702;24.896;2023-01-28T06:51:10;99377.19;;;1.51;100.00
8069;BME280;4077;43.702;24.896;2023-01-28T06:53:35;99362.56;;;1.47;100.00
8069;BME280;4077;43.702;24.896;2023-01-28T06:56:01;99369.56;;;1.51;100.00
8069;BME280;4077;43.702;24.896;2023-01-28T06:58:26;99363.72;;;1.54;100.00
8069;BME280;4077;43.702;24.896;2023-01-28T07:00:52;99371.69;;;1.61;100.00
8069;BME280;4077;43.702;24.896;2023-01-28T07:03:17;99364.13;;;1.63;100.00
8069;BME280;4077;43.702;24.896;2023-01-28T07:05:43;99340.22;;;1.40;100.00
8069;BME280;4077;43.702;24.896;2023-01-28T07:08:13;99374.63;;;1.51;100.00
8069;BME280;4077;43.702;24.896;2023-01-28T07:10:38;99379.84;;;1.54;100.00
8069;BME280;4077;43.702;24.896;2023-01-28T07:13:03;99381.75;;;1.58;100.00
8069;BME280;4077;43.702;24.896;2023-01-28T07:15:29;99373.03;;;1.53;100.00
8069;BME280;4077;43.702;24.896;2023-01-28T07:17:54;99387.69;;;1.59;100.00
8069;BME280;4077;43.702;24.896;2023-01-28T07:20:20;99388.00;;;1.47;100.00
8069;BME280;4077;43.702;24.896;2023-01-28T07:22:46;99383.22;;;1.35;100.00
8069;BME280;4077;43.702;24.896;2023-01-28T07:25:12;99395.50;;;1.44;100.00
8069;BME280;4077;43.702;24.896;2023-01-28T07:27:39;99393.47;;;1.37;100.00
8069;BME280;4077;43.702;24.896;2023-01-28T07:30:05;99392.41;;;1.32;100.00
8069;BME280;4077;43.702;24.896;2023-01-28T07:32:30;99402.34;;;1.27;100.00
8069;BME280;4077;43.702;24.896;2023-01-28T07:34:55;99395.47;;;1.25;100.00
8069;BME280;4077;43.702;24.896;2023-01-28T07:37:21;99410.03;;;1.29;100.00
8069;BME280;4077;43.702;24.896;2023-01-28T07:39:46;99391.25;;;1.25;100.00
8069;BME280;4077;43.702;24.896;2023-01-28T07:42:12;99372.63;;;1.08;100.00
8069;BME280;4077;43.702;24.896;2023-01-28T07:44:38;99410.19;;;1.32;100.00
8069;BME280;4077;43.702;24.896;2023-01-28T07:47:05;99404.16;;;1.30;100.00
8069;BME280;4077;43.702;24.896;2023-01-28T07:49:32;99405.91;;;1.31;100.00
8069;BME280;4077;43.702;24.896;2023-01-28T07:51:58;99404.16;;;1.30;100.00
8069;BME280;4077;43.702;24.896;2023-01-28T07:54:23;99406.03;;;1.34;100.00
8069;BME280;4077;43.702;24.896;2023-01-28T07:56:49;99392.09;;;1.26;100.00
8069;BME280;4077;43.702;24.896;2023-01-28T07:59:14;99398.94;;;1.27;100.00
8069;BME280;4077;43.702;24.896;2023-01-28T08:01:40;99414.88;;;1.42;100.00
8069;BME280;4077;43.702;24.896;2023-01-28T08:04:05;99418.41;;;1.44;100.00
8069;BME280;4077;43.702;24.896;2023-01-28T08:06:30;99396.75;;;1.34;100.00
8069;BME280;4077;43.702;24.896;2023-01-28T08:09:05;99428.06;;;1.51;100.00
8069;BME280;4077;43.702;24.896;2023-01-28T08:11:33;99435.53;;;1.48;100.00
8069;BME280;4077;43.702;24.896;2023-01-28T08:14:01;99435.69;;;1.51;100.00
8069;BME280;4077;43.702;24.896;2023-01-28T08:16:26;99416.50;;;1.40;100.00
8069;BME280;4077;43.702;24.896;2023-01-28T08:18:53;99440.91;;;1.54;100.00
8069;BME280;4077;43.702;24.896;2023-01-28T08:21:18;99413.31;;;1.44;100.00
8069;BME280;4077;43.702;24.896;2023-01-28T08:23:44;99444.53;;;1.59;100.00
8069;BME280;4077;43.702;24.896;2023-01-28T08:26:09;99436.63;;;1.53;100.00
8069;BME280;4077;43.702;24.896;2023-01-28T08:28:35;99440.97;;;1.56;100.00
8069;BME280;4077;43.702;24.896;2023-01-28T08:31:00;99446.09;;;1.57;100.00
8069;BME280;4077;43.702;24.896;2023-01-28T08:33:26;99440.03;;;1.54;100.00
8069;BME280;4077;43.702;24.896;2023-01-28T08:35:51;99462.97;;;1.55;100.00
8069;BME280;4077;43.702;24.896;2023-01-28T08:38:17;99457.59;;;1.49;100.00
8069;BME280;4077;43.702;24.896;2023-01-28T08:40:45;99461.25;;;1.54;100.00
8069;BME280;4077;43.702;24.896;2023-01-28T08:43:10;99451.28;;;1.41;100.00
8069;BME280;4077;43.702;24.896;2023-01-28T08:45:38;99434.66;;;1.30;100.00
8069;BME280;4077;43.702;24.896;2023-01-28T08:48:05;99464.00;;;1.41;100.00
8069;BME280;4077;43.702;24.896;2023-01-28T08:50:36;99457.81;;;1.36;100.00
8069;BME280;4077;43.702;24.896;2023-01-28T08:53:11;99458.06;;;1.41;100.00
8069;BME280;4077;43.702;24.896;2023-01-28T08:55:37;99462.28;;;1.40;100.00
8069;BME280;4077;43.702;24.896;2023-01-28T08:58:04;99456.03;;;1.33;100.00
8069;BME280;4077;43.702;24.896;2023-01-28T09:00:31;99455.91;;;1.30;100.00
8069;BME280;4077;43.702;24.896;2023-01-28T09:02:56;99466.44;;;1.38;100.00
8069;BME280;4077;43.702;24.896;2023-01-28T09:05:22;99428.03;;;1.16;100.00
8069;BME280;4077;43.702;24.896;2023-01-28T09:07:47;99439.47;;;1.24;100.00
8069;BME280;4077;43.702;24.896;2023-01-28T09:10:13;99458.78;;;1.38;100.00
8069;BME280;4077;43.702;24.896;2023-01-28T09:12:41;99463.88;;;1.38;100.00
8069;BME280;4077;43.702;24.896;2023-01-28T09:15:07;99457.47;;;1.28;100.00
8069;BME280;4077;43.702;24.896;2023-01-28T09:17:32;99451.81;;;1.34;100.00
8069;BME280;4077;43.702;24.896;2023-01-28T09:19:58;99456.59;;;1.46;100.00
8069;BME280;4077;43.702;24.896;2023-01-28T09:22:23;99455.75;;;1.45;100.00
8069;BME280;4077;43.702;24.896;2023-01-28T09:24:49;99448.47;;;1.35;100.00
8069;BME280;4077;43.702;24.896;2023-01-28T09:27:14;99414.31;;;1.30;100.00
8069;BME280;4077;43.702;24.896;2023-01-28T09:29:40;99455.75;;;1.45;100.00
8069;BME280;4077;43.702;24.896;2023-01-28T09:32:05;99448.00;;;1.61;100.00
8069;BME280;4077;43.702;24.896;2023-01-28T09:34:32;99443.78;;;1.62;100.00
8069;BME280;4077;43.702;24.896;2023-01-28T09:36:57;99443.19;;;1.68;100.00
8069;BME280;4077;43.702;24.896;2023-01-28T09:39:23;99443.50;;;1.74;100.00
8069;BME280;4077;43.702;24.896;2023-01-28T09:47:35;99438.06;;;2.05;100.00
8069;BME280;4077;43.702;24.896;2023-01-28T09:50:06;99436.41;;;2.05;100.00
8069;BME280;4077;43.702;24.896;2023-01-28T09:52:35;99437.16;;;2.03;100.00
8069;BME280;4077;43.702;24.896;2023-01-28T09:57:37;99436.22;;;2.20;100.00
8069;BME280;4077;43.702;24.896;2023-01-28T10:00:16;99432.72;;;2.18;100.00
8069;BME280;4077;43.702;24.896;2023-01-28T10:19:15;99448.31;;;2.45;100.00
8069;BME280;4077;43.702;24.896;2023-01-28T10:21:57;99446.78;;;2.49;100.00
8069;BME280;4077;43.702;24.896;2023-01-28T10:24:33;99449.06;;;2.42;100.00
8069;BME280;4077;43.702;24.896;2023-01-28T10:27:10;99429.56;;;2.43;100.00
8069;BME280;4077;43.702;24.896;2023-01-28T10:29:38;99447.75;;;2.71;100.00
8069;BME280;4077;43.702;24.896;2023-01-28T10:34:36;99455.34;;;2.70;100.00
8069;BME280;4077;43.702;24.896;2023-01-28T10:37:01;99449.75;;;2.79;100.00
8069;BME280;4077;43.702;24.896;2023-01-28T10:39:27;99436.44;;;2.86;100.00
8069;BME280;4077;43.702;24.896;2023-01-28T10:41:53;99430.16;;;2.78;100.00
8069;BME280;4077;43.702;24.896;2023-01-28T10:44:30;99455.66;;;3.19;100.00
8069;BME280;4077;43.702;24.896;2023-01-28T10:46:58;99458.97;;;3.17;100.00
8069;BME280;4077;43.702;24.896;2023-01-28T10:49:27;99459.38;;;3.27;100.00
8069;BME280;4077;43.702;24.896;2023-01-28T10:51:54;99461.94;;;3.27;100.00
8069;BME280;4077;43.702;24.896;2023-01-28T10:54:22;99459.38;;;3.27;100.00
8069;BME280;4077;43.702;24.896;2023-01-28T10:56:51;99424.25;;;3.20;100.00
8069;BME280;4077;43.702;24.896;2023-01-28T10:59:21;99456.31;;;3.57;100.00
8069;BME280;4077;43.702;24.896;2023-01-28T11:01:52;99450.69;;;3.66;100.00
8069;BME280;4077;43.702;24.896;2023-01-28T11:04:32;99457.34;;;3.84;100.00
8069;BME280;4077;43.702;24.896;2023-01-28T11:07:19;99438.19;;;3.96;100.00
8069;BME280;4077;43.702;24.896;2023-01-28T11:09:47;99462.38;;;4.05;100.00
8069;BME280;4077;43.702;24.896;2023-01-28T11:14:58;99461.44;;;4.03;100.00
8069;BME280;4077;43.702;24.896;2023-01-28T11:17:27;99450.22;;;3.98;100.00
8069;BME280;4077;43.702;24.896;2023-01-28T11:19:55;99457.78;;;3.97;100.00
8069;BME280;4077;43.702;24.896;2023-01-28T11:22:39;99465.56;;;4.00;100.00
8069;BME280;4077;43.702;24.896;2023-01-28T11:25:18;99458.00;;;4.03;100.00
8069;BME280;4077;43.702;24.896;2023-01-28T11:27:51;99467.13;;;3.96;100.00
8069;BME280;4077;43.702;24.896;2023-01-28T11:35:27;99467.53;;;4.07;100.00
8069;BME280;4077;43.702;24.896;2023-01-28T11:37:56;99475.31;;;4.10;100.00
8069;BME280;4077;43.702;24.896;2023-01-28T11:40:22;99466.72;;;4.08;100.00
8069;BME280;4077;43.702;24.896;2023-01-28T11:42:53;99461.56;;;4.06;100.00
8069;BME280;4077;43.702;24.896;2023-01-28T11:48:05;99479.34;;;4.27;100.00
8069;BME280;4077;43.702;24.896;2023-01-28T11:53:39;99478.31;;;4.22;100.00
8069;BME280;4077;43.702;24.896;2023-01-28T12:02:15;99481.19;;;4.07;100.00
8069;BME280;4077;43.702;24.896;2023-01-28T12:10:06;99461.38;;;4.02;100.00
8069;BME280;4077;43.702;24.896;2023-01-28T12:12:52;99460.75;;;4.07;100.00
8069;BME280;4077;43.702;24.896;2023-01-28T12:21:03;99460.03;;;3.65;100.00
8069;BME280;4077;43.702;24.896;2023-01-28T12:42:41;99456.72;;;3.24;100.00
8069;BME280;4077;43.702;24.896;2023-01-28T12:45:39;99438.94;;;3.05;100.00
8069;BME280;4077;43.702;24.896;2023-01-28T12:48:36;99455.63;;;2.97;100.00
8069;BME280;4077;43.702;24.896;2023-01-28T12:51:26;99449.19;;;2.86;100.00
8069;BME280;4077;43.702;24.896;2023-01-28T12:54:26;99465.00;;;2.98;100.00
8069;BME280;4077;43.702;24.896;2023-01-28T12:56:54;99461.44;;;2.94;100.00
8069;BME280;4077;43.702;24.896;2023-01-28T12:59:28;99467.41;;;2.95;100.00
8069;BME280;4077;43.702;24.896;2023-01-28T13:07:27;99461.63;;;2.99;100.00
8069;BME280;4077;43.702;24.896;2023-01-28T13:10:11;99462.31;;;2.95;100.00
8069;BME280;4077;43.702;24.896;2023-01-28T13:12:40;99449.38;;;2.90;100.00
8069;BME280;4077;43.702;24.896;2023-01-28T13:15:12;99462.31;;;2.95;100.00
8069;BME280;4077;43.702;24.896;2023-01-28T13:17:39;99468.31;;;2.95;100.00
8069;BME280;4077;43.702;24.896;2023-01-28T13:20:36;99450.88;;;2.85;100.00
8069;BME280;4077;43.702;24.896;2023-01-28T13:23:21;99463.94;;;2.93;100.00
8069;BME280;4077;43.702;24.896;2023-01-28T13:25:50;99450.50;;;2.76;100.00
8069;BME280;4077;43.702;24.896;2023-01-28T13:28:30;99462.38;;;2.76;100.00
8069;BME280;4077;43.702;24.896;2023-01-28T13:31:07;99456.16;;;2.69;100.00
8069;BME280;4077;43.702;24.896;2023-01-28T13:33:38;99426.22;;;2.44;100.00
8069;BME280;4077;43.702;24.896;2023-01-28T13:36:33;99463.19;;;2.74;100.00
8069;BME280;4077;43.702;24.896;2023-01-28T13:39:25;99464.41;;;2.63;100.00
8069;BME280;4077;43.702;24.896;2023-01-28T13:41:54;99461.16;;;2.67;100.00
8069;BME280;4077;43.702;24.896;2023-01-28T13:44:29;99462.06;;;2.68;100.00
8069;BME280;4077;43.702;24.896;2023-01-28T13:47:12;99457.69;;;2.65;100.00
8069;BME280;4077;43.702;24.896;2023-01-28T13:49:48;99468.94;;;2.70;100.00
8069;BME280;4077;43.702;24.896;2023-01-28T13:52:36;99472.38;;;2.71;100.00
8069;BME280;4077;43.702;24.896;2023-01-28T14:03:10;99485.97;;;2.71;100.00
8069;BME280;4077;43.702;24.896;2023-01-28T14:19:21;99467.47;;;2.76;100.00
8069;BME280;4077;43.702;24.896;2023-01-28T14:21:50;99460.06;;;2.61;100.00
8069;BME280;4077;43.702;24.896;2023-01-28T14:24:17;99483.31;;;2.68;100.00
8069;BME280;4077;43.702;24.896;2023-01-28T14:27:07;99483.31;;;2.68;100.00
8069;BME280;4077;43.702;24.896;2023-01-28T14:30:02;99479.91;;;2.68;100.00
8069;BME280;4077;43.702;24.896;2023-01-28T14:32:30;99481.31;;;2.61;100.00
8069;BME280;4077;43.702;24.896;2023-01-28T14:34:58;99490.22;;;2.52;100.00
8069;BME280;4077;43.702;24.896;2023-01-28T14:37:28;99470.72;;;2.33;100.00
8069;BME280;4077;43.702;24.896;2023-01-28T14:40:00;99465.63;;;2.33;100.00
8069;BME280;4077;43.702;24.896;2023-01-28T14:42:42;99490.53;;;2.40;100.00
8069;BME280;4077;43.702;24.896;2023-01-28T14:56:54;99489.75;;;2.22;100.00
8069;BME280;4077;43.702;24.896;2023-01-28T14:59:51;99487.16;;;2.20;100.00
8069;BME280;4077;43.702;24.896;2023-01-28T15:02:22;99441.28;;;1.81;100.00
8069;BME280;4077;43.702;24.896;2023-01-28T15:04:50;99490.66;;;2.04;100.00
8069;BME280;4077;43.702;24.896;2023-01-28T15:07:17;99499.25;;;2.06;100.00
8069;BME280;4077;43.702;24.896;2023-01-28T15:09:43;99506.00;;;2.06;100.00
8069;BME280;4077;43.702;24.896;2023-01-28T15:12:09;99480.94;;;1.96;100.00
8069;BME280;4077;43.702;24.896;2023-01-28T15:14:35;99491.19;;;1.97;100.00
8069;BME280;4077;43.702;24.896;2023-01-28T15:17:01;99506.09;;;2.07;100.00
8069;BME280;4077;43.702;24.896;2023-01-28T15:19:36;99501.66;;;2.03;100.00
8069;BME280;4077;43.702;24.896;2023-01-28T15:22:05;99502.59;;;2.05;100.00
8069;BME280;4077;43.702;24.896;2023-01-28T15:24:33;99482.06;;;1.83;100.00
8069;BME280;4077;43.702;24.896;2023-01-28T15:26:59;99499.28;;;1.88;100.00
8069;BME280;4077;43.702;24.896;2023-01-28T15:29:36;99506.13;;;1.89;100.00
8069;BME280;4077;43.702;24.896;2023-01-28T15:32:05;99491.09;;;1.76;100.00
8069;BME280;4077;43.702;24.896;2023-01-28T15:34:30;99509.41;;;1.87;100.00
8069;BME280;4077;43.702;24.896;2023-01-28T15:36:57;99518.09;;;1.92;100.00
8069;BME280;4077;43.702;24.896;2023-01-28T15:39:24;99519.88;;;1.93;100.00